FMEP

Pierrefonds Airport

St Pierre, Reunion
TAF FMEP 221100Z 2212/2221 28012KT 9999 SCT035 PROB30 TEMPO 2212/2215 4000 SHRA SCT022TCU BECMG 2216/2218 03005KT
Issued Valid From Valid To
Jan-22 @ 11:00 UTC
(7 hours ago)
Jan-22 @ 12:00 UTC
(6 hours ago)
Jan-22 @ 21:00 UTC
(in 3 hours)
Expired Click to View Jan-22 @ 12:00 to Jan-22 @ 16:00
TAF FMEP 221100Z 2212/2221 28012KT 9999 SCT035
Wind Visibility Clouds
280° at 12 knots 10,000+ meters
  • Scattered at 3,500' AGL
Expired Click to View Jan-22 @ 12:00 to Jan-22 @ 15:00
PROB30 TEMPO 2212/2215 4000 SHRA SCT022TCU
Visibility Clouds Conditions
4,007 meters
  • Scattered at 2,200' AGL
  • Rain
Becoming Jan-22 @ 16:00 to Jan-22 @ 21:00
BECMG 2216/2218 03005KT
Wind Visibility Clouds
30° at 5 knots 10,000+ meters
  • Scattered at 3,500' AGL
TAF FMEP 221100Z 2212/2221 28012KT 9999 SCT035 PROB30 TEMPO 2212/2215 4000 SHRA SCT022TCU BECMG 2216/2218 03005KT
Issued Jan-22 @ 11:00 UTC
(7 hours ago)
Valid From Jan-22 @ 12:00 UTC
(6 hours ago)
Valid To Jan-22 @ 21:00 UTC
(in 3 hours)
Jan-22 @ 12:00 - Jan-22 @ 16:00
Wind Visibility
280° at 12 knots 10,000+ meters
Clouds
  • Scattered at 3,500' AGL
Jan-22 @ 12:00 - Jan-22 @ 15:00
Clouds
  • Scattered at 2,200' AGL
Conditions
  • Rain
Becoming Jan-22 @ 16:00 - Jan-22 @ 21:00
Wind Visibility
30° at 5 knots 10,000+ meters
Clouds
  • Scattered at 3,500' AGL